sensor_id;sensor_type;location;lat;lon;timestamp;P1;durP1;ratioP1;P2;durP2;ratioP2
21091;SDS011;10704;42.678;23.288;2023-06-01T00:00:37;11.32;;;7.80;;
21091;SDS011;10704;42.678;23.288;2023-06-01T00:03:05;12.15;;;8.00;;
21091;SDS011;10704;42.678;23.288;2023-06-01T00:05:31;13.32;;;7.95;;
21091;SDS011;10704;42.678;23.288;2023-06-01T00:10:55;15.68;;;8.52;;
21091;SDS011;10704;42.678;23.288;2023-06-01T00:13:20;12.70;;;7.93;;
21091;SDS011;10704;42.678;23.288;2023-06-01T00:15:46;11.68;;;8.07;;
21091;SDS011;10704;42.678;23.288;2023-06-01T00:18:12;13.30;;;8.40;;
21091;SDS011;10704;42.678;23.288;2023-06-01T00:20:40;16.75;;;8.32;;
21091;SDS011;10704;42.678;23.288;2023-06-01T00:23:06;11.80;;;8.57;;
21091;SDS011;10704;42.678;23.288;2023-06-01T00:25:34;12.45;;;8.95;;
21091;SDS011;10704;42.678;23.288;2023-06-01T00:28:00;14.30;;;9.00;;
21091;SDS011;10704;42.678;23.288;2023-06-01T00:30:27;14.48;;;9.77;;
21091;SDS011;10704;42.678;23.288;2023-06-01T00:32:53;13.85;;;9.40;;
21091;SDS011;10704;42.678;23.288;2023-06-01T00:35:20;13.15;;;8.88;;
21091;SDS011;10704;42.678;23.288;2023-06-01T00:37:46;12.77;;;8.63;;
21091;SDS011;10704;42.678;23.288;2023-06-01T00:40:13;14.63;;;9.88;;
21091;SDS011;10704;42.678;23.288;2023-06-01T00:42:39;18.40;;;9.50;;
21091;SDS011;10704;42.678;23.288;2023-06-01T00:48:52;18.45;;;10.40;;
21091;SDS011;10704;42.678;23.288;2023-06-01T00:51:19;16.50;;;11.10;;
21091;SDS011;10704;42.678;23.288;2023-06-01T00:56:37;17.10;;;11.52;;
21091;SDS011;10704;42.678;23.288;2023-06-01T01:02:52;19.05;;;11.68;;
21091;SDS011;10704;42.678;23.288;2023-06-01T01:05:18;14.57;;;10.85;;
21091;SDS011;10704;42.678;23.288;2023-06-01T01:07:51;17.00;;;11.93;;
21091;SDS011;10704;42.678;23.288;2023-06-01T01:10:38;19.83;;;11.50;;
21091;SDS011;10704;42.678;23.288;2023-06-01T01:13:11;16.17;;;10.63;;
21091;SDS011;10704;42.678;23.288;2023-06-01T01:18:21;20.15;;;12.77;;
21091;SDS011;10704;42.678;23.288;2023-06-01T01:20:55;16.60;;;10.88;;
21091;SDS011;10704;42.678;23.288;2023-06-01T01:26:07;20.80;;;11.00;;
21091;SDS011;10704;42.678;23.288;2023-06-01T01:31:17;18.95;;;11.10;;
21091;SDS011;10704;42.678;23.288;2023-06-01T01:33:46;25.58;;;14.25;;
21091;SDS011;10704;42.678;23.288;2023-06-01T01:36:15;35.08;;;17.73;;
21091;SDS011;10704;42.678;23.288;2023-06-01T01:38:42;37.42;;;19.98;;
21091;SDS011;10704;42.678;23.288;2023-06-01T01:41:08;28.80;;;16.70;;
21091;SDS011;10704;42.678;23.288;2023-06-01T01:43:34;43.58;;;18.77;;
21091;SDS011;10704;42.678;23.288;2023-06-01T01:46:12;34.22;;;17.67;;
21091;SDS011;10704;42.678;23.288;2023-06-01T01:51:50;31.90;;;18.58;;
21091;SDS011;10704;42.678;23.288;2023-06-01T01:54:23;37.30;;;19.70;;
21091;SDS011;10704;42.678;23.288;2023-06-01T02:00:38;37.00;;;20.10;;
21091;SDS011;10704;42.678;23.288;2023-06-01T02:03:12;31.95;;;18.85;;
21091;SDS011;10704;42.678;23.288;2023-06-01T02:05:42;35.72;;;20.48;;
21091;SDS011;10704;42.678;23.288;2023-06-01T02:08:08;52.50;;;20.15;;
21091;SDS011;10704;42.678;23.288;2023-06-01T02:10:35;38.72;;;20.27;;
21091;SDS011;10704;42.678;23.288;2023-06-01T02:13:01;39.88;;;20.17;;
21091;SDS011;10704;42.678;23.288;2023-06-01T02:15:27;52.53;;;21.92;;
21091;SDS011;10704;42.678;23.288;2023-06-01T02:17:53;116.78;;;22.90;;
21091;SDS011;10704;42.678;23.288;2023-06-01T02:20:19;38.03;;;20.23;;
21091;SDS011;10704;42.678;23.288;2023-06-01T02:22:45;40.90;;;20.42;;
21091;SDS011;10704;42.678;23.288;2023-06-01T02:25:11;43.38;;;19.65;;
21091;SDS011;10704;42.678;23.288;2023-06-01T02:27:37;38.78;;;19.17;;
21091;SDS011;10704;42.678;23.288;2023-06-01T02:30:03;31.83;;;18.25;;
21091;SDS011;10704;42.678;23.288;2023-06-01T02:32:31;29.88;;;17.90;;
21091;SDS011;10704;42.678;23.288;2023-06-01T02:34:57;18.80;;;12.75;;
21091;SDS011;10704;42.678;23.288;2023-06-01T02:37:24;15.18;;;11.13;;
21091;SDS011;10704;42.678;23.288;2023-06-01T02:39:50;18.45;;;12.48;;
21091;SDS011;10704;42.678;23.288;2023-06-01T02:42:16;26.02;;;15.25;;
21091;SDS011;10704;42.678;23.288;2023-06-01T02:44:42;26.48;;;15.82;;
21091;SDS011;10704;42.678;23.288;2023-06-01T02:47:09;29.75;;;15.60;;
21091;SDS011;10704;42.678;23.288;2023-06-01T02:49:36;32.00;;;17.88;;
21091;SDS011;10704;42.678;23.288;2023-06-01T02:52:02;30.00;;;17.42;;
21091;SDS011;10704;42.678;23.288;2023-06-01T02:54:28;29.73;;;17.02;;
21091;SDS011;10704;42.678;23.288;2023-06-01T02:56:55;27.90;;;18.20;;
21091;SDS011;10704;42.678;23.288;2023-06-01T02:59:53;28.08;;;16.70;;
21091;SDS011;10704;42.678;23.288;2023-06-01T03:02:19;30.15;;;17.33;;
21091;SDS011;10704;42.678;23.288;2023-06-01T03:04:45;32.83;;;18.40;;
21091;SDS011;10704;42.678;23.288;2023-06-01T03:07:11;26.63;;;16.00;;
21091;SDS011;10704;42.678;23.288;2023-06-01T03:09:49;25.10;;;15.85;;
21091;SDS011;10704;42.678;23.288;2023-06-01T03:19:15;33.53;;;18.23;;
21091;SDS011;10704;42.678;23.288;2023-06-01T03:21:42;158.38;;;23.83;;
21091;SDS011;10704;42.678;23.288;2023-06-01T03:24:09;76.30;;;22.35;;
21091;SDS011;10704;42.678;23.288;2023-06-01T03:26:45;43.88;;;23.27;;
21091;SDS011;10704;42.678;23.288;2023-06-01T03:29:11;41.63;;;22.95;;
21091;SDS011;10704;42.678;23.288;2023-06-01T03:35:24;45.67;;;19.85;;
21091;SDS011;10704;42.678;23.288;2023-06-01T03:37:50;30.77;;;18.50;;
21091;SDS011;10704;42.678;23.288;2023-06-01T03:40:18;31.45;;;19.60;;
21091;SDS011;10704;42.678;23.288;2023-06-01T03:42:45;31.80;;;18.15;;
21091;SDS011;10704;42.678;23.288;2023-06-01T03:45:13;32.03;;;17.90;;
21091;SDS011;10704;42.678;23.288;2023-06-01T03:47:41;29.38;;;17.63;;
21091;SDS011;10704;42.678;23.288;2023-06-01T03:50:08;29.13;;;17.77;;
21091;SDS011;10704;42.678;23.288;2023-06-01T03:52:35;30.50;;;18.33;;
21091;SDS011;10704;42.678;23.288;2023-06-01T03:55:02;30.55;;;18.23;;
21091;SDS011;10704;42.678;23.288;2023-06-01T03:58:01;30.95;;;18.55;;
21091;SDS011;10704;42.678;23.288;2023-06-01T04:00:31;32.85;;;19.80;;
21091;SDS011;10704;42.678;23.288;2023-06-01T04:02:59;33.80;;;18.02;;
21091;SDS011;10704;42.678;23.288;2023-06-01T04:05:32;31.95;;;18.67;;
21091;SDS011;10704;42.678;23.288;2023-06-01T04:08:00;51.45;;;18.15;;
21091;SDS011;10704;42.678;23.288;2023-06-01T04:10:26;45.22;;;18.85;;
21091;SDS011;10704;42.678;23.288;2023-06-01T04:12:52;30.77;;;18.50;;
21091;SDS011;10704;42.678;23.288;2023-06-01T04:15:22;33.38;;;18.73;;
21091;SDS011;10704;42.678;23.288;2023-06-01T04:21:36;32.90;;;19.20;;
21091;SDS011;10704;42.678;23.288;2023-06-01T04:27:49;27.27;;;16.60;;
21091;SDS011;10704;42.678;23.288;2023-06-01T04:30:22;25.63;;;15.57;;
21091;SDS011;10704;42.678;23.288;2023-06-01T04:32:49;22.67;;;14.93;;
21091;SDS011;10704;42.678;23.288;2023-06-01T04:35:16;23.75;;;15.65;;
21091;SDS011;10704;42.678;23.288;2023-06-01T04:37:41;22.00;;;15.60;;
21091;SDS011;10704;42.678;23.288;2023-06-01T04:40:10;26.45;;;16.20;;
21091;SDS011;10704;42.678;23.288;2023-06-01T04:42:40;21.00;;;14.88;;
21091;SDS011;10704;42.678;23.288;2023-06-01T04:45:12;23.95;;;15.90;;
21091;SDS011;10704;42.678;23.288;2023-06-01T04:47:47;24.40;;;16.98;;
21091;SDS011;10704;42.678;23.288;2023-06-01T04:50:29;25.85;;;15.82;;
21091;SDS011;10704;42.678;23.288;2023-06-01T04:53:01;26.80;;;17.75;;
21091;SDS011;10704;42.678;23.288;2023-06-01T04:55:29;23.90;;;16.25;;
21091;SDS011;10704;42.678;23.288;2023-06-01T04:57:55;23.42;;;15.63;;
21091;SDS011;10704;42.678;23.288;2023-06-01T05:00:22;26.90;;;17.08;;
21091;SDS011;10704;42.678;23.288;2023-06-01T05:02:52;26.70;;;16.77;;
21091;SDS011;10704;42.678;23.288;2023-06-01T05:15:27;23.25;;;15.55;;
21091;SDS011;10704;42.678;23.288;2023-06-01T05:21:44;23.08;;;16.05;;
21091;SDS011;10704;42.678;23.288;2023-06-01T05:24:12;28.45;;;17.27;;
21091;SDS011;10704;42.678;23.288;2023-06-01T05:26:38;27.30;;;17.02;;
21091;SDS011;10704;42.678;23.288;2023-06-01T05:29:05;24.55;;;16.63;;
21091;SDS011;10704;42.678;23.288;2023-06-01T05:31:31;25.60;;;15.77;;
21091;SDS011;10704;42.678;23.288;2023-06-01T05:33:58;27.63;;;17.15;;
21091;SDS011;10704;42.678;23.288;2023-06-01T05:36:27;31.67;;;18.23;;
21091;SDS011;10704;42.678;23.288;2023-06-01T05:38:54;30.10;;;20.30;;
21091;SDS011;10704;42.678;23.288;2023-06-01T05:41:20;26.77;;;18.13;;
21091;SDS011;10704;42.678;23.288;2023-06-01T05:43:46;24.08;;;17.00;;
21091;SDS011;10704;42.678;23.288;2023-06-01T05:46:12;23.23;;;16.92;;
21091;SDS011;10704;42.678;23.288;2023-06-01T05:48:41;24.55;;;17.02;;
21091;SDS011;10704;42.678;23.288;2023-06-01T05:51:10;27.25;;;18.73;;
21091;SDS011;10704;42.678;23.288;2023-06-01T05:57:24;22.80;;;16.38;;
21091;SDS011;10704;42.678;23.288;2023-06-01T05:59:51;23.27;;;16.80;;
21091;SDS011;10704;42.678;23.288;2023-06-01T06:02:28;24.77;;;17.08;;
21091;SDS011;10704;42.678;23.288;2023-06-01T06:04:57;25.65;;;16.80;;
21091;SDS011;10704;42.678;23.288;2023-06-01T06:07:23;22.13;;;15.77;;
21091;SDS011;10704;42.678;23.288;2023-06-01T06:09:49;25.55;;;16.58;;
21091;SDS011;10704;42.678;23.288;2023-06-01T06:12:16;23.73;;;16.90;;
21091;SDS011;10704;42.678;23.288;2023-06-01T06:14:44;23.60;;;16.08;;
21091;SDS011;10704;42.678;23.288;2023-06-01T06:17:14;26.60;;;17.65;;
21091;SDS011;10704;42.678;23.288;2023-06-01T06:19:40;31.83;;;20.70;;
21091;SDS011;10704;42.678;23.288;2023-06-01T06:22:17;27.70;;;18.77;;
21091;SDS011;10704;42.678;23.288;2023-06-01T06:24:48;28.77;;;19.30;;
21091;SDS011;10704;42.678;23.288;2023-06-01T06:30:03;28.75;;;18.60;;
21091;SDS011;10704;42.678;23.288;2023-06-01T06:36:24;28.17;;;19.00;;
21091;SDS011;10704;42.678;23.288;2023-06-01T06:38:51;27.65;;;17.70;;
21091;SDS011;10704;42.678;23.288;2023-06-01T06:41:17;23.25;;;16.73;;
21091;SDS011;10704;42.678;23.288;2023-06-01T06:43:44;28.05;;;18.05;;
21091;SDS011;10704;42.678;23.288;2023-06-01T06:46:10;30.38;;;17.20;;
21091;SDS011;10704;42.678;23.288;2023-06-01T06:48:36;25.17;;;16.63;;
21091;SDS011;10704;42.678;23.288;2023-06-01T06:51:02;24.08;;;16.08;;
21091;SDS011;10704;42.678;23.288;2023-06-01T06:53:28;22.73;;;15.13;;
21091;SDS011;10704;42.678;23.288;2023-06-01T06:55:55;22.70;;;15.43;;
21091;SDS011;10704;42.678;23.288;2023-06-01T06:58:21;25.63;;;15.25;;
21091;SDS011;10704;42.678;23.288;2023-06-01T07:08:23;21.85;;;14.32;;
21091;SDS011;10704;42.678;23.288;2023-06-01T07:10:50;22.90;;;15.68;;
21091;SDS011;10704;42.678;23.288;2023-06-01T07:17:03;26.42;;;16.88;;
21091;SDS011;10704;42.678;23.288;2023-06-01T07:19:30;28.08;;;17.10;;
21091;SDS011;10704;42.678;23.288;2023-06-01T07:22:01;24.60;;;17.17;;
21091;SDS011;10704;42.678;23.288;2023-06-01T07:28:15;24.55;;;17.15;;
21091;SDS011;10704;42.678;23.288;2023-06-01T07:38:16;21.33;;;14.43;;
21091;SDS011;10704;42.678;23.288;2023-06-01T07:40:43;24.33;;;15.00;;
21091;SDS011;10704;42.678;23.288;2023-06-01T07:43:09;20.85;;;15.55;;
21091;SDS011;10704;42.678;23.288;2023-06-01T07:45:35;18.00;;;13.95;;
21091;SDS011;10704;42.678;23.288;2023-06-01T07:48:01;22.85;;;15.65;;
21091;SDS011;10704;42.678;23.288;2023-06-01T07:54:15;24.20;;;16.05;;
21091;SDS011;10704;42.678;23.288;2023-06-01T07:56:42;21.08;;;15.05;;
21091;SDS011;10704;42.678;23.288;2023-06-01T07:59:08;19.45;;;15.05;;
21091;SDS011;10704;42.678;23.288;2023-06-01T08:01:34;22.55;;;15.23;;
21091;SDS011;10704;42.678;23.288;2023-06-01T08:04:01;23.45;;;14.23;;
21091;SDS011;10704;42.678;23.288;2023-06-01T08:06:27;20.13;;;14.70;;
21091;SDS011;10704;42.678;23.288;2023-06-01T08:08:53;21.23;;;14.40;;
21091;SDS011;10704;42.678;23.288;2023-06-01T08:18:21;23.30;;;14.75;;
21091;SDS011;10704;42.678;23.288;2023-06-01T08:20:48;26.13;;;17.67;;
21091;SDS011;10704;42.678;23.288;2023-06-01T08:23:14;26.48;;;18.27;;
21091;SDS011;10704;42.678;23.288;2023-06-01T08:25:44;30.98;;;18.10;;
21091;SDS011;10704;42.678;23.288;2023-06-01T08:28:11;29.65;;;18.83;;
21091;SDS011;10704;42.678;23.288;2023-06-01T08:30:37;28.13;;;18.95;;
21091;SDS011;10704;42.678;23.288;2023-06-01T08:33:03;26.00;;;18.10;;
21091;SDS011;10704;42.678;23.288;2023-06-01T08:35:30;28.95;;;18.15;;
21091;SDS011;10704;42.678;23.288;2023-06-01T08:37:59;28.67;;;19.55;;
21091;SDS011;10704;42.678;23.288;2023-06-01T08:40:26;27.45;;;18.90;;
21091;SDS011;10704;42.678;23.288;2023-06-01T08:46:40;26.27;;;17.88;;
21091;SDS011;10704;42.678;23.288;2023-06-01T08:49:08;27.23;;;17.80;;
21091;SDS011;10704;42.678;23.288;2023-06-01T08:51:38;34.25;;;18.70;;
21091;SDS011;10704;42.678;23.288;2023-06-01T08:54:09;24.40;;;17.83;;
21091;SDS011;10704;42.678;23.288;2023-06-01T08:56:36;29.85;;;18.20;;
21091;SDS011;10704;42.678;23.288;2023-06-01T08:59:08;29.70;;;18.20;;
21091;SDS011;10704;42.678;23.288;2023-06-01T09:01:38;26.88;;;18.35;;
21091;SDS011;10704;42.678;23.288;2023-06-01T09:06:51;25.83;;;16.98;;
21091;SDS011;10704;42.678;23.288;2023-06-01T09:13:11;22.52;;;16.25;;
21091;SDS011;10704;42.678;23.288;2023-06-01T09:18:59;20.55;;;12.25;;
21091;SDS011;10704;42.678;23.288;2023-06-01T09:25:14;15.35;;;12.05;;
21091;SDS011;10704;42.678;23.288;2023-06-01T09:27:47;15.77;;;11.85;;
21091;SDS011;10704;42.678;23.288;2023-06-01T09:30:18;17.83;;;10.60;;
21091;SDS011;10704;42.678;23.288;2023-06-01T09:32:46;11.85;;;8.93;;
21091;SDS011;10704;42.678;23.288;2023-06-01T09:35:16;15.93;;;10.48;;
21091;SDS011;10704;42.678;23.288;2023-06-01T09:38:03;22.23;;;12.95;;
21091;SDS011;10704;42.678;23.288;2023-06-01T09:40:38;20.58;;;13.20;;
21091;SDS011;10704;42.678;23.288;2023-06-01T09:46:53;19.55;;;13.02;;
21091;SDS011;10704;42.678;23.288;2023-06-01T09:53:08;18.27;;;12.02;;
21091;SDS011;10704;42.678;23.288;2023-06-01T09:58:44;14.85;;;8.98;;
21091;SDS011;10704;42.678;23.288;2023-06-01T10:04:57;16.40;;;11.38;;
21091;SDS011;10704;42.678;23.288;2023-06-01T10:07:26;12.00;;;8.10;;
21091;SDS011;10704;42.678;23.288;2023-06-01T10:13:41;9.32;;;6.00;;
21091;SDS011;10704;42.678;23.288;2023-06-01T10:19:55;10.85;;;6.00;;
21091;SDS011;10704;42.678;23.288;2023-06-01T10:25:41;11.07;;;6.28;;
21091;SDS011;10704;42.678;23.288;2023-06-01T10:31:58;12.35;;;6.38;;
21091;SDS011;10704;42.678;23.288;2023-06-01T10:39:34;12.35;;;6.75;;
21091;SDS011;10704;42.678;23.288;2023-06-01T10:45:47;14.30;;;7.47;;
21091;SDS011;10704;42.678;23.288;2023-06-01T10:54:52;10.23;;;6.45;;
21091;SDS011;10704;42.678;23.288;2023-06-01T11:00:26;11.50;;;7.22;;
21091;SDS011;10704;42.678;23.288;2023-06-01T11:02:56;11.00;;;6.90;;
21091;SDS011;10704;42.678;23.288;2023-06-01T11:13:16;12.60;;;6.68;;
21091;SDS011;10704;42.678;23.288;2023-06-01T11:22:19;9.13;;;5.80;;
21091;SDS011;10704;42.678;23.288;2023-06-01T11:28:34;8.52;;;4.90;;
21091;SDS011;10704;42.678;23.288;2023-06-01T11:31:01;9.48;;;5.57;;
21091;SDS011;10704;42.678;23.288;2023-06-01T11:33:40;11.50;;;5.82;;
21091;SDS011;10704;42.678;23.288;2023-06-01T11:36:09;7.15;;;4.55;;
21091;SDS011;10704;42.678;23.288;2023-06-01T11:38:37;10.63;;;5.30;;
21091;SDS011;10704;42.678;23.288;2023-06-01T11:41:05;11.75;;;5.97;;
21091;SDS011;10704;42.678;23.288;2023-06-01T11:43:34;10.50;;;6.05;;
21091;SDS011;10704;42.678;23.288;2023-06-01T11:49:49;7.53;;;4.72;;
21091;SDS011;10704;42.678;23.288;2023-06-01T11:55:11;6.70;;;4.32;;
21091;SDS011;10704;42.678;23.288;2023-06-01T12:01:25;7.78;;;4.20;;
21091;SDS011;10704;42.678;23.288;2023-06-01T12:07:08;6.63;;;3.85;;
21091;SDS011;10704;42.678;23.288;2023-06-01T12:09:34;9.43;;;4.40;;
21091;SDS011;10704;42.678;23.288;2023-06-01T12:12:01;10.10;;;3.97;;
21091;SDS011;10704;42.678;23.288;2023-06-01T12:14:27;9.82;;;4.25;;
21091;SDS011;10704;42.678;23.288;2023-06-01T12:16:54;10.02;;;4.60;;
21091;SDS011;10704;42.678;23.288;2023-06-01T12:19:26;10.32;;;4.80;;
21091;SDS011;10704;42.678;23.288;2023-06-01T12:21:55;8.48;;;4.80;;
21091;SDS011;10704;42.678;23.288;2023-06-01T12:31:29;8.07;;;4.75;;
21091;SDS011;10704;42.678;23.288;2023-06-01T12:37:42;7.03;;;4.68;;
21091;SDS011;10704;42.678;23.288;2023-06-01T12:40:09;10.23;;;5.30;;
21091;SDS011;10704;42.678;23.288;2023-06-01T12:42:36;8.88;;;5.28;;
21091;SDS011;10704;42.678;23.288;2023-06-01T12:45:04;11.60;;;5.10;;
21091;SDS011;10704;42.678;23.288;2023-06-01T12:47:40;9.75;;;5.38;;
21091;SDS011;10704;42.678;23.288;2023-06-01T12:50:10;10.32;;;5.82;;
21091;SDS011;10704;42.678;23.288;2023-06-01T12:56:25;10.50;;;6.15;;
21091;SDS011;10704;42.678;23.288;2023-06-01T13:01:52;7.80;;;5.72;;
21091;SDS011;10704;42.678;23.288;2023-06-01T13:04:18;8.80;;;5.60;;
21091;SDS011;10704;42.678;23.288;2023-06-01T13:06:44;11.23;;;5.63;;
21091;SDS011;10704;42.678;23.288;2023-06-01T13:12:59;10.38;;;5.65;;
21091;SDS011;10704;42.678;23.288;2023-06-01T13:15:25;9.38;;;5.57;;
21091;SDS011;10704;42.678;23.288;2023-06-01T13:17:51;11.23;;;6.00;;
21091;SDS011;10704;42.678;23.288;2023-06-01T13:20:20;8.68;;;5.20;;
21091;SDS011;10704;42.678;23.288;2023-06-01T13:22:46;9.18;;;4.60;;
21091;SDS011;10704;42.678;23.288;2023-06-01T13:25:13;8.30;;;4.07;;
21091;SDS011;10704;42.678;23.288;2023-06-01T13:27:39;7.20;;;4.80;;
21091;SDS011;10704;42.678;23.288;2023-06-01T13:30:06;7.72;;;3.40;;
21091;SDS011;10704;42.678;23.288;2023-06-01T13:35:38;5.60;;;3.35;;
21091;SDS011;10704;42.678;23.288;2023-06-01T13:38:12;5.47;;;3.33;;
21091;SDS011;10704;42.678;23.288;2023-06-01T13:40:38;5.95;;;2.90;;
21091;SDS011;10704;42.678;23.288;2023-06-01T13:45:57;5.97;;;2.90;;
21091;SDS011;10704;42.678;23.288;2023-06-01T13:48:22;4.28;;;2.13;;
21091;SDS011;10704;42.678;23.288;2023-06-01T13:50:50;5.40;;;2.63;;
21091;SDS011;10704;42.678;23.288;2023-06-01T13:53:17;7.00;;;2.97;;
21091;SDS011;10704;42.678;23.288;2023-06-01T13:58:57;5.53;;;2.75;;
21091;SDS011;10704;42.678;23.288;2023-06-01T14:01:37;5.85;;;2.63;;
21091;SDS011;10704;42.678;23.288;2023-06-01T14:04:03;4.28;;;2.35;;
21091;SDS011;10704;42.678;23.288;2023-06-01T14:10:16;5.90;;;2.95;;
21091;SDS011;10704;42.678;23.288;2023-06-01T14:12:42;9.60;;;5.45;;
21091;SDS011;10704;42.678;23.288;2023-06-01T14:15:08;8.98;;;5.35;;
21091;SDS011;10704;42.678;23.288;2023-06-01T14:21:22;10.07;;;4.82;;
21091;SDS011;10704;42.678;23.288;2023-06-01T14:23:49;10.32;;;4.65;;
21091;SDS011;10704;42.678;23.288;2023-06-01T14:26:15;7.78;;;3.90;;
21091;SDS011;10704;42.678;23.288;2023-06-01T14:28:41;6.93;;;3.95;;
21091;SDS011;10704;42.678;23.288;2023-06-01T14:34:26;7.90;;;3.85;;
21091;SDS011;10704;42.678;23.288;2023-06-01T14:40:02;6.68;;;4.60;;
21091;SDS011;10704;42.678;23.288;2023-06-01T14:42:28;12.25;;;5.10;;
21091;SDS011;10704;42.678;23.288;2023-06-01T14:48:42;9.07;;;5.40;;
21091;SDS011;10704;42.678;23.288;2023-06-01T14:51:08;7.85;;;4.82;;
21091;SDS011;10704;42.678;23.288;2023-06-01T14:53:35;9.25;;;4.95;;
21091;SDS011;10704;42.678;23.288;2023-06-01T14:56:01;10.48;;;4.82;;
21091;SDS011;10704;42.678;23.288;2023-06-01T14:58:28;8.32;;;4.57;;
21091;SDS011;10704;42.678;23.288;2023-06-01T15:00:54;13.02;;;5.93;;
21091;SDS011;10704;42.678;23.288;2023-06-01T15:03:20;10.80;;;5.35;;
21091;SDS011;10704;42.678;23.288;2023-06-01T15:05:46;10.23;;;5.15;;
21091;SDS011;10704;42.678;23.288;2023-06-01T15:15:48;7.90;;;5.38;;
21091;SDS011;10704;42.678;23.288;2023-06-01T15:18:15;9.25;;;5.85;;
21091;SDS011;10704;42.678;23.288;2023-06-01T15:20:41;10.55;;;6.50;;
21091;SDS011;10704;42.678;23.288;2023-06-01T15:23:08;13.02;;;6.00;;
21091;SDS011;10704;42.678;23.288;2023-06-01T15:25:34;13.00;;;6.30;;
21091;SDS011;10704;42.678;23.288;2023-06-01T15:28:00;8.82;;;5.97;;
21091;SDS011;10704;42.678;23.288;2023-06-01T15:30:26;11.25;;;6.38;;
21091;SDS011;10704;42.678;23.288;2023-06-01T15:32:56;9.45;;;5.90;;
21091;SDS011;10704;42.678;23.288;2023-06-01T15:35:22;8.75;;;5.82;;
21091;SDS011;10704;42.678;23.288;2023-06-01T15:44:08;11.95;;;6.55;;
21091;SDS011;10704;42.678;23.288;2023-06-01T15:46:34;11.15;;;6.13;;
21091;SDS011;10704;42.678;23.288;2023-06-01T15:49:00;10.85;;;6.20;;
21091;SDS011;10704;42.678;23.288;2023-06-01T15:51:26;10.18;;;6.63;;
21091;SDS011;10704;42.678;23.288;2023-06-01T15:53:53;13.05;;;6.47;;
21091;SDS011;10704;42.678;23.288;2023-06-01T16:03:54;13.48;;;6.55;;
21091;SDS011;10704;42.678;23.288;2023-06-01T16:06:21;12.27;;;7.40;;
21091;SDS011;10704;42.678;23.288;2023-06-01T16:12:21;14.50;;;7.07;;
21091;SDS011;10704;42.678;23.288;2023-06-01T16:14:47;30.38;;;14.18;;
21091;SDS011;10704;42.678;23.288;2023-06-01T16:21:01;19.17;;;11.45;;
21091;SDS011;10704;42.678;23.288;2023-06-01T16:23:26;42.10;;;21.75;;
21091;SDS011;10704;42.678;23.288;2023-06-01T16:25:53;28.63;;;16.40;;
21091;SDS011;10704;42.678;23.288;2023-06-01T16:28:19;23.33;;;13.10;;
21091;SDS011;10704;42.678;23.288;2023-06-01T16:30:45;35.42;;;16.75;;
21091;SDS011;10704;42.678;23.288;2023-06-01T16:33:16;44.95;;;22.15;;
21091;SDS011;10704;42.678;23.288;2023-06-01T16:35:42;21.83;;;13.52;;
21091;SDS011;10704;42.678;23.288;2023-06-01T16:41:57;18.95;;;10.77;;
21091;SDS011;10704;42.678;23.288;2023-06-01T16:52:00;15.43;;;8.30;;
21091;SDS011;10704;42.678;23.288;2023-06-01T16:54:28;14.70;;;7.80;;
21091;SDS011;10704;42.678;23.288;2023-06-01T16:56:55;15.50;;;8.45;;
21091;SDS011;10704;42.678;23.288;2023-06-01T16:59:23;15.15;;;8.50;;
21091;SDS011;10704;42.678;23.288;2023-06-01T17:01:49;18.48;;;8.98;;
21091;SDS011;10704;42.678;23.288;2023-06-01T17:04:16;19.40;;;9.27;;
21091;SDS011;10704;42.678;23.288;2023-06-01T17:06:42;17.40;;;9.32;;
21091;SDS011;10704;42.678;23.288;2023-06-01T17:13:01;17.60;;;8.73;;
21091;SDS011;10704;42.678;23.288;2023-06-01T17:18:20;11.95;;;8.18;;
21091;SDS011;10704;42.678;23.288;2023-06-01T17:24:35;14.40;;;9.25;;
21091;SDS011;10704;42.678;23.288;2023-06-01T17:27:01;17.30;;;7.95;;
21091;SDS011;10704;42.678;23.288;2023-06-01T17:29:29;17.10;;;9.85;;
21091;SDS011;10704;42.678;23.288;2023-06-01T17:31:56;16.00;;;9.10;;
21091;SDS011;10704;42.678;23.288;2023-06-01T17:34:22;17.88;;;10.77;;
21091;SDS011;10704;42.678;23.288;2023-06-01T17:36:50;21.83;;;11.88;;
21091;SDS011;10704;42.678;23.288;2023-06-01T17:43:05;16.95;;;8.43;;
21091;SDS011;10704;42.678;23.288;2023-06-01T17:45:32;15.25;;;8.52;;
21091;SDS011;10704;42.678;23.288;2023-06-01T17:57:41;14.18;;;8.40;;
21091;SDS011;10704;42.678;23.288;2023-06-01T18:06:37;18.02;;;10.07;;
21091;SDS011;10704;42.678;23.288;2023-06-01T18:09:03;16.25;;;9.40;;
21091;SDS011;10704;42.678;23.288;2023-06-01T18:11:29;17.55;;;8.63;;
21091;SDS011;10704;42.678;23.288;2023-06-01T18:13:55;18.40;;;9.40;;
21091;SDS011;10704;42.678;23.288;2023-06-01T18:23:17;16.50;;;9.20;;
21091;SDS011;10704;42.678;23.288;2023-06-01T18:25:43;17.48;;;8.32;;
21091;SDS011;10704;42.678;23.288;2023-06-01T18:28:09;14.35;;;7.93;;
21091;SDS011;10704;42.678;23.288;2023-06-01T18:30:34;19.02;;;9.10;;
21091;SDS011;10704;42.678;23.288;2023-06-01T18:33:00;16.15;;;9.18;;
21091;SDS011;10704;42.678;23.288;2023-06-01T18:35:26;13.30;;;8.52;;
21091;SDS011;10704;42.678;23.288;2023-06-01T18:37:53;14.27;;;8.60;;
21091;SDS011;10704;42.678;23.288;2023-06-01T18:40:19;14.98;;;8.75;;
21091;SDS011;10704;42.678;23.288;2023-06-01T18:42:45;14.98;;;9.15;;
21091;SDS011;10704;42.678;23.288;2023-06-01T18:45:12;15.60;;;8.95;;
21091;SDS011;10704;42.678;23.288;2023-06-01T18:50:08;13.02;;;7.88;;
21091;SDS011;10704;42.678;23.288;2023-06-01T18:55:55;13.25;;;8.60;;
21091;SDS011;10704;42.678;23.288;2023-06-01T18:58:21;14.60;;;8.77;;
21091;SDS011;10704;42.678;23.288;2023-06-01T19:00:47;14.57;;;9.02;;
21091;SDS011;10704;42.678;23.288;2023-06-01T19:07:00;11.70;;;8.23;;
21091;SDS011;10704;42.678;23.288;2023-06-01T19:13:14;14.35;;;8.90;;
21091;SDS011;10704;42.678;23.288;2023-06-01T19:15:42;13.93;;;8.85;;
21091;SDS011;10704;42.678;23.288;2023-06-01T19:21:57;15.90;;;9.80;;
21091;SDS011;10704;42.678;23.288;2023-06-01T19:24:23;19.45;;;10.63;;
21091;SDS011;10704;42.678;23.288;2023-06-01T19:26:50;18.35;;;10.23;;
21091;SDS011;10704;42.678;23.288;2023-06-01T19:33:07;13.15;;;7.60;;
21091;SDS011;10704;42.678;23.288;2023-06-01T19:35:34;10.80;;;7.80;;
21091;SDS011;10704;42.678;23.288;2023-06-01T19:38:00;12.40;;;7.18;;
21091;SDS011;10704;42.678;23.288;2023-06-01T19:53:57;16.63;;;9.15;;
21091;SDS011;10704;42.678;23.288;2023-06-01T19:59:10;18.98;;;12.80;;
21091;SDS011;10704;42.678;23.288;2023-06-01T20:04:57;19.58;;;10.43;;
21091;SDS011;10704;42.678;23.288;2023-06-01T20:11:11;17.85;;;10.57;;
21091;SDS011;10704;42.678;23.288;2023-06-01T20:13:39;15.55;;;9.00;;
21091;SDS011;10704;42.678;23.288;2023-06-01T20:19:54;16.40;;;9.02;;
21091;SDS011;10704;42.678;23.288;2023-06-01T20:25:06;17.77;;;10.00;;
21091;SDS011;10704;42.678;23.288;2023-06-01T20:27:32;15.25;;;10.00;;
21091;SDS011;10704;42.678;23.288;2023-06-01T20:30:02;15.55;;;9.63;;
21091;SDS011;10704;42.678;23.288;2023-06-01T20:32:41;16.33;;;9.20;;
21091;SDS011;10704;42.678;23.288;2023-06-01T20:35:08;19.23;;;9.98;;
21091;SDS011;10704;42.678;23.288;2023-06-01T20:37:36;17.70;;;10.05;;